Decoded Metar for EPSC (SZCZECIN in POLAND) (IATA:SZZ) | Meteo·Mobile Aviation Weather
aviador You're here:

EPSC Decoded Metar

SZCZECIN in POLAND
Report Time2018-12-19 05:30:00
UTC Time2018-12-19 05:50:21
Flight Rules ifr IFR
Wind130° at 15 kt
W.Decomp.*RWY 13: 15.0 kt HW 0.8 kt LCW
W.Rank130° ranks 1
Current wind is above 130° avg. (6.8)
Visibility6000 m
Phenomena:N/A
Clouds:Scattered 006 Hf
Broken 007 Hf
Overcast 009 Hf
Expected CloudBase > 400 ft AGL from Temp-Dew spread
Ceiling700 ft
Temp02°C (ISA -13)
Dew Point01°C (93% RH)
AAT-5.2°C
QNH1021 hPa
Density Alt-1,752 ft
Elevation10 ft
Report Wrong Elevation
Raw Report
EPSC 190530Z 13015KT 6000 SCT006 BKN007 OVC009 02/01 Q1021=

Extra information for EPSC:More info

Metar Taf Metar & Taf Last 4 Metars F.Rules Stats Wind Profile Meteogram Temp Stats Airport Information Weather charts Add Link Nearby VenuesMetar ALERT Operation Metar Decoded Social comments